OGD weather

Ogden Hinckley Airport
Ogden, Utah, United States

Public forecast

Using degrees Fahrenheit for public forecast. Weather courtesy of forecast.io.

METAR (pilot weather report)

Retrieved 2019/09/23 18:53 UTC (40 minutes ago):

KOGD 231853Z 21007KT 10SM CLR 22/M02 A3012 RMK AO2 SLP156 T02221017

TAF (pilot weather forecast)

Retrieved 2019/09/23 18:22 UTC (1 hour ago):

TAF KOGD 231720Z 2318/2418 29007KT P6SM BKN200 FM240300 17005KT P6SM SCT200